^^
Station Historical Data
Daily Summary for April 14, 2017 Units:  Metric    English   Both
« Previous Day
Next Day »
Daily Weekly Monthly Yearly Custom
  High: Low: Average:
Temperature: 24.5 °C 9.9 °C 15.9 °C
Dew Point: 9.1 °C 3 °C 7.1 °C
Humidity: 79% 31% 60%
Wind Speed: 20.9km/h 0km/h 7.7km/h
Wind Gust: 22.5km/h - -
Wind- - SSW
Pressure: 1018.8 hPa 1015.8 hPa -
Precipitation: 0 mm    
Historical Graphs
 
 
Tabular Data for April 14, 2017
Time Temperature Dew Point Pressure Wind Wind Speed Wind Gust Humidity Rainfall Rate (Hourly) solar Conditions
00:11 12.8 °C 8.5 °C 1016.1 hPa SSW 13 km/h 17.7 km/h 75% 0 mm 0.0 W/m2
00:20 12.6 °C 8.5 °C 1016.1 hPa SW 16.3 km/h 16.3 km/h 76% 0 mm 0.0 W/m2
00:31 12.6 °C 8.5 °C 1016.1 hPa SW 13 km/h 16.1 km/h 76% 0 mm 0.0 W/m2
00:45 12.5 °C 8.4 °C 1016.1 hPa SW 9.7 km/h 19.3 km/h 76% 0 mm 0.0 W/m2
00:55 12.4 °C 8.3 °C 1016.1 hPa SW 9.7 km/h 17.7 km/h 76% 0 mm 0.0 W/m2
01:04 12.4 °C 8.3 °C 1016.1 hPa SW 14.3 km/h 17.7 km/h 76% 0 mm 0.0 W/m2
01:14 12.4 °C 8.3 °C 1016.1 hPa SSW 14.3 km/h 16.1 km/h 76% 0 mm 0.0 W/m2
01:25 12.3 °C 8.4 °C 1016.5 hPa SSW 13 km/h 13 km/h 77% 0 mm 0.0 W/m2
01:35 12.3 °C 8.4 °C 1016.1 hPa SSW 16.3 km/h 17.7 km/h 77% 0 mm 0.0 W/m2
01:46 12.2 °C 8.3 °C 1016.1 hPa SSW 13 km/h 14.5 km/h 77% 0 mm 0.0 W/m2
01:57 12.2 °C 8.3 °C 1016.1 hPa SSW 13 km/h 16.1 km/h 77% 0 mm 0.0 W/m2
02:12 12.1 °C 8.2 °C 1016.1 hPa SW 13 km/h 16.1 km/h 77% 0 mm 0.0 W/m2
02:22 12 °C 8.1 °C 1016.1 hPa SW 9.7 km/h 14.5 km/h 77% 0 mm 0.0 W/m2
02:31 11.9 °C 8.2 °C 1015.8 hPa SW 7.9 km/h 16.1 km/h 78% 0 mm 0.0 W/m2
02:38 11.9 °C 8.2 °C 1015.8 hPa SW 13 km/h 16.1 km/h 78% 0 mm 0.0 W/m2
02:47 11.8 °C 8.1 °C 1015.8 hPa SW 11.1 km/h 16.1 km/h 78% 0 mm 0.0 W/m2
02:52 11.8 °C 8.1 °C 1015.8 hPa SW 11.1 km/h 16.1 km/h 78% 0 mm 0.0 W/m2
02:57 11.7 °C 8 °C 1015.8 hPa SW 11.1 km/h 14.5 km/h 78% 0 mm 0.0 W/m2
03:02 11.7 °C 8 °C 1015.8 hPa SW 13 km/h 16.1 km/h 78% 0 mm 0.0 W/m2
03:08 11.7 °C 8 °C 1015.8 hPa SW 13 km/h 14.5 km/h 78% 0 mm 0.0 W/m2
03:13 11.6 °C 7.9 °C 1015.8 hPa SW 11.1 km/h 12.9 km/h 78% 0 mm 0.0 W/m2
03:18 11.6 °C 7.9 °C 1015.8 hPa SW 7.9 km/h 14.5 km/h 78% 0 mm 0.0 W/m2
03:23 11.5 °C 7.8 °C 1015.8 hPa SW 9.7 km/h 16.1 km/h 78% 0 mm 0.0 W/m2
03:29 11.5 °C 7.8 °C 1015.8 hPa SW 11.1 km/h 17.7 km/h 78% 0 mm 0.0 W/m2
03:39 11.4 °C 7.5 °C 1016.1 hPa SW 13 km/h 17.7 km/h 77% 0 mm 0.0 W/m2
03:48 11.3 °C 7.4 °C 1016.1 hPa SW 11.1 km/h 16.1 km/h 77% 0 mm 0.0 W/m2
03:54 11.3 °C 7.4 °C 1016.1 hPa SW 14.3 km/h 16.1 km/h 77% 0 mm 0.0 W/m2
04:09 11.1 °C 7 °C 1016.1 hPa SW 11.1 km/h 12.9 km/h 76% 0 mm 0.0 W/m2
04:14 11.1 °C 7 °C 1016.1 hPa SW 13 km/h 16.1 km/h 76% 0 mm 0.0 W/m2
04:24 10.9 °C 6.8 °C 1016.1 hPa SW 7.9 km/h 12.9 km/h 76% 0 mm 0.0 W/m2
04:29 10.9 °C 6.8 °C 1016.5 hPa SW 7.9 km/h 9.7 km/h 76% 0 mm 0.0 W/m2
04:35 10.8 °C 6.9 °C 1016.5 hPa SW 6.4 km/h 8 km/h 77% 0 mm 0.0 W/m2
04:40 10.7 °C 6.8 °C 1016.5 hPa SW 6.4 km/h 8 km/h 77% 0 mm 0.0 W/m2
04:46 10.7 °C 6.6 °C 1016.5 hPa SW 9.7 km/h 9.7 km/h 76% 0 mm 0.0 W/m2
04:51 10.6 °C 6.5 °C 1016.5 hPa SW 4.7 km/h 9.7 km/h 76% 0 mm 0.0 W/m2
05:02 10.4 °C 6.5 °C 1016.5 hPa Calm     77% 0 mm 0.0 W/m2
05:12 10.3 °C 6.4 °C 1016.8 hPa Calm     77% 0 mm 0.0 W/m2
05:23 10.2 °C 6.5 °C 1016.8 hPa Calm     78% 0 mm 0.0 W/m2
05:31 9.9 °C 6.4 °C 1016.8 hPa Calm     79% 0 mm 0.0 W/m2
05:41 10.1 °C 6.6 °C 1016.8 hPa Calm     79% 0 mm 0.0 W/m2
05:46 10.2 °C 6.5 °C 1017.2 hPa Calm     78% 0 mm 0.0 W/m2
05:51 10.3 °C 6.6 °C 1017.2 hPa Calm     78% 0 mm 0.0 W/m2
05:56 10.2 °C 6.5 °C 1017.2 hPa Calm     78% 0 mm 0.0 W/m2
06:02 10.2 °C 6.5 °C 1017.2 hPa Calm     78% 0 mm 0.0 W/m2
06:12 10 °C 6.5 °C 1017.2 hPa Calm     79% 0 mm 7.0 W/m2
06:22 10.1 °C 6.4 °C 1017.2 hPa Calm     78% 0 mm 12.0 W/m2
06:27 10.1 °C 6.4 °C 1017.5 hPa Calm     78% 0 mm 14.0 W/m2
06:32 10.2 °C 6.5 °C 1017.5 hPa Calm     78% 0 mm 16.0 W/m2
06:37 10.3 °C 6.6 °C 1017.5 hPa Calm     78% 0 mm 19.0 W/m2
06:43 10.4 °C 6.5 °C 1017.5 hPa Calm     77% 0 mm 60.0 W/m2
06:49 10.6 °C 6.7 °C 1017.5 hPa Calm     77% 0 mm 77.0 W/m2
07:12 11.7 °C 7 °C 1017.8 hPa SW 7.9 km/h 11.3 km/h 73% 0 mm 158.0 W/m2
07:57 12.9 °C 7.1 °C 1018.2 hPa SW 1.4 km/h 6.4 km/h 68% 0 mm 311.0 W/m2
08:10 13.3 °C 7.3 °C 1018.5 hPa Calm     67% 0 mm 362.0 W/m2
08:23 14.1 °C 7.6 °C 1018.5 hPa Calm     65% 0 mm 410.0 W/m2
08:29 14.3 °C 7.6 °C 1018.8 hPa Calm     64% 0 mm 425.0 W/m2
08:42 14.7 °C 8 °C 1018.8 hPa Calm     64% 0 mm 455.0 W/m2
09:28 16.4 °C 8.6 °C 1018.8 hPa Calm     60% 0 mm 584.0 W/m2
09:43 17.6 °C 9 °C 1018.8 hPa Calm     57% 0 mm 621.0 W/m2
10:03 17.9 °C 9 °C 1018.8 hPa Calm     56% 0 mm 666.0 W/m2
10:09 18.3 °C 9.1 °C 1018.8 hPa Calm     55% 0 mm 675.0 W/m2
10:24 18.7 °C 8.9 °C 1018.8 hPa Calm     53% 0 mm 700.0 W/m2
10:29 18.7 °C 8.9 °C 1018.5 hPa Calm     53% 0 mm 708.0 W/m2
10:45 19 °C 8.9 °C 1018.5 hPa Calm     52% 0 mm 726.0 W/m2
11:02 19.5 °C 8.8 °C 1018.5 hPa Calm     50% 0 mm 745.0 W/m2
11:35 20.9 °C 8.8 °C 1017.8 hPa Calm   8 km/h 46% 0 mm 765.0 W/m2
11:56 21 °C 8.6 °C 1017.8 hPa Calm     45% 0 mm 770.0 W/m2
12:11 21.2 °C 8.5 °C 1017.5 hPa Calm     44% 0 mm 765.0 W/m2
12:21 21.4 °C 8.3 °C 1017.5 hPa Calm     43% 0 mm 759.0 W/m2
12:30 21.8 °C 8.7 °C 1017.2 hPa Calm     43% 0 mm 756.0 W/m2
12:41 22 °C 8.5 °C 1017.2 hPa West 11.1 km/h 11.3 km/h 42% 0 mm 751.0 W/m2
13:17 22.2 °C 8.3 °C 1016.8 hPa SW 6.4 km/h 12.9 km/h 41% 0 mm 703.0 W/m2
13:26 22.4 °C 8.5 °C 1016.5 hPa South 20.9 km/h 20.9 km/h 41% 0 mm 691.0 W/m2
13:49 22.8 °C 8.1 °C 1016.5 hPa Calm     39% 0 mm 654.0 W/m2
14:04 22.8 °C 7.7 °C 1016.1 hPa Calm   9.7 km/h 38% 0 mm 621.0 W/m2
14:55 24.2 °C 6.9 °C 1016.1 hPa Calm   9.7 km/h 33% 0 mm 489.0 W/m2
15:03 24.1 °C 7.3 °C 1016.1 hPa Calm     34% 0 mm 457.0 W/m2
15:15 24.4 °C 7.1 °C 1016.1 hPa Calm     33% 0 mm 425.0 W/m2
15:41 24.5 °C 7.6 °C 1016.1 hPa SSE 14.3 km/h 17.7 km/h 34% 0 mm 352.0 W/m2
15:50 24.4 °C 7.5 °C 1015.8 hPa SSE 11.1 km/h 16.1 km/h 34% 0 mm 318.0 W/m2
16:01 24.5 °C 7.6 °C 1016.1 hPa South 11.1 km/h 20.9 km/h 34% 0 mm 283.0 W/m2
16:09 24.4 °C 7.5 °C 1016.1 hPa South 9.7 km/h 14.5 km/h 34% 0 mm 250.0 W/m2
16:19 24.3 °C 7.4 °C 1016.1 hPa South 11.1 km/h 17.7 km/h 34% 0 mm 206.0 W/m2
16:29 24.2 °C 7.3 °C 1016.1 hPa South 7.9 km/h 12.9 km/h 34% 0 mm 169.0 W/m2
17:01 23.9 °C 6.6 °C 1016.1 hPa South 13 km/h 17.7 km/h 33% 0 mm 54.0 W/m2
17:11 23.8 °C 5.7 °C 1016.1 hPa South 9.7 km/h 16.1 km/h 31% 0 mm 26.0 W/m2
17:20 23.6 °C 5.5 °C 1016.1 hPa South 17.7 km/h 19.3 km/h 31% 0 mm 12.0 W/m2
17:28 23.3 °C 5.2 °C 1016.1 hPa SSE 13 km/h 17.7 km/h 31% 0 mm 7.0 W/m2
17:42 22.8 °C 4.8 °C 1016.5 hPa SSE 16.3 km/h 19.3 km/h 31% 0 mm 0.0 W/m2
17:47 22.7 °C 4.7 °C 1016.5 hPa SSE 19.5 km/h 19.5 km/h 31% 0 mm 0.0 W/m2
18:24 22 °C 5 °C 1016.8 hPa SSE 9.7 km/h 16.1 km/h 33% 0 mm 0.0 W/m2
18:33 21.7 °C 4.7 °C 1016.8 hPa SSE 9.7 km/h 17.7 km/h 33% 0 mm 0.0 W/m2
18:48 21.3 °C 4.8 °C 1017.2 hPa SE 13 km/h 17.7 km/h 34% 0 mm 0.0 W/m2
19:04 21.1 °C 4.6 °C 1017.2 hPa SE 14.3 km/h 17.7 km/h 34% 0 mm 0.0 W/m2
19:09 20.9 °C 4.4 °C 1017.2 hPa SE 17.7 km/h 22.5 km/h 34% 0 mm 0.0 W/m2
19:30 20.5 °C 4.1 °C 1017.5 hPa SE 16.3 km/h 16.3 km/h 34% 0 mm 0.0 W/m2
19:45 20.1 °C 3.3 °C 1017.8 hPa SE 20.9 km/h 20.9 km/h 33% 0 mm 0.0 W/m2
19:59 19.8 °C 3.5 °C 1017.8 hPa SE 19.5 km/h 22.5 km/h 34% 0 mm 0.0 W/m2
20:24 19.4 °C 3.1 °C 1017.8 hPa SE 19.5 km/h 22.5 km/h 34% 0 mm 0.0 W/m2
20:37 19.2 °C 3 °C 1018.2 hPa SE 19.5 km/h 19.5 km/h 34% 0 mm 0.0 W/m2
20:46 19.1 °C 3.3 °C 1018.2 hPa SE 20.9 km/h 20.9 km/h 35% 0 mm 0.0 W/m2
Canyon Roadhouse, Fishriver Canyon, Namibia
Compliments of Weather Underground - 2.25 mb